EBAW

EBAW 222050Z 13002KT CAVOK 13/09 Q1007 NOSIG

TAF TAF EBAW 251700Z 2518/2606 11007KT CAVOK PROB30 TEMPO 2518/2520 VRB15G30KT 3500 SHRA TSRA

EHWO

EHWO 222101Z AUTO 34001KT 8000 BR SCT056 12/11 Q1007 BLU

TAF EHWO 220809Z 2209/2221 VRB03KT 4000 BR NSC BECMG 2209/2211 CAVOK BECMG 2211/2213 26005KT BECMG 2218/2220 VRB03KT

EBBL

EBBL 222055Z VRB02KT 9999 SKC 13/10 Q1007 BLU BLU

TAF EBBL 221541Z 2219/2307 VRB02KT 9999 SKC BECMG 2303/2305 22005KT SCT040

Always consult the official METAR resources.